Time;durP1;ratioP1;P1;durP2;ratioP2;P2;SDS_P1;SDS_P2;PMS_P1;PMS_P2;Temp;Humidity;BMP_temperature;BMP_pressure;BME280_temperature;BME280_humidity;BME280_pressure;Samples;Min_cycle;Max_cycle;Signal;HPM_P1;HPM_P2
2022/05/02 00:00:42;674476.00;2.25;1163.00;0.00;0.00;0.62;;;;;15.20;1.00;;;;;;2272031;61;1474;-85
2022/05/02 00:03:09;551411.00;1.84;950.39;29036.00;0.10;50.91;;;;;15.50;1.00;;;;;;2271842;61;1152;-85
2022/05/02 00:05:38;492236.00;1.64;848.46;5688.00;0.02;10.48;;;;;15.70;1.00;;;;;;2271806;61;1091;-87
2022/05/02 00:08:06;645196.00;2.15;1112.33;63015.00;0.21;109.69;;;;;15.40;1.00;;;;;;2272039;61;1131;-84
2022/05/02 00:10:33;562798.00;1.88;970.03;34702.00;0.12;60.72;;;;;15.10;1.00;;;;;;2272101;61;1279;-83
2022/05/02 00:13:01;375210.00;1.25;647.19;15767.00;0.05;27.94;;;;;15.30;1.00;;;;;;2272083;61;2002;-83
2022/05/02 00:15:29;151672.00;0.51;262.69;20739.00;0.07;36.55;;;;;15.50;1.00;;;;;;2272173;61;1171;-85
2022/05/02 00:17:59;220655.00;0.74;381.47;0.00;0.00;0.62;;;;;15.10;1.00;;;;;;2272135;61;1230;-85
2022/05/02 00:20:28;51969.00;0.17;90.59;0.00;0.00;0.62;;;;;15.30;1.00;;;;;;2272206;61;1387;-85
2022/05/02 00:22:58;92474.00;0.31;160.58;0.00;0.00;0.62;;;;;15.40;1.00;;;;;;2272325;61;1078;-86
2022/05/02 00:25:26;55108.00;0.18;96.02;0.00;0.00;0.62;;;;;15.90;1.00;;;;;;2272243;61;1045;-86
2022/05/02 00:27:53;104915.00;0.35;182.05;0.00;0.00;0.62;;;;;15.90;1.00;;;;;;2272319;61;1035;-86
2022/05/02 00:30:21;46632.00;0.16;81.36;0.00;0.00;0.62;;;;;15.80;1.00;;;;;;2272141;61;1259;-85
2022/05/02 00:32:48;54911.00;0.18;95.68;0.00;0.00;0.62;;;;;15.90;1.00;;;;;;2272040;61;2008;-84
2022/05/02 00:35:15;0.00;0.00;0.62;0.00;0.00;0.62;;;;;16.00;1.00;;;;;;2271719;61;1096;-83
2022/05/02 00:37:43;16342.00;0.05;28.94;0.00;0.00;0.62;;;;;15.40;1.00;;;;;;2272067;61;1179;-83
2022/05/02 00:40:14;172513.00;0.58;298.60;9244.00;0.03;16.64;;;;;15.50;1.00;;;;;;2271974;61;1276;-83
2022/05/02 00:42:42;254.00;0.00;1.06;0.00;0.00;0.62;;;;;15.40;1.00;;;;;;2272045;61;1089;-85
2022/05/02 00:45:11;268309.00;0.89;463.44;46279.00;0.15;80.75;;;;;15.40;1.00;;;;;;2271995;61;1171;-84
2022/05/02 00:47:38;191573.00;0.64;331.42;0.00;0.00;0.62;;;;;15.40;1.00;;;;;;2271941;61;1085;-86
2022/05/02 00:50:07;275144.00;0.92;475.19;36342.00;0.12;63.56;;;;;15.40;1.00;;;;;;2272120;61;1341;-86
2022/05/02 00:52:34;237314.00;0.79;410.13;5025.00;0.02;9.33;;;;;15.00;1.00;;;;;;2272575;61;2002;-86
2022/05/02 00:55:04;232830.00;0.78;402.42;0.00;0.00;0.62;;;;;14.80;1.00;;;;;;2272666;61;1318;-85
2022/05/02 00:57:34;137359.00;0.46;238.02;0.00;0.00;0.62;;;;;15.10;1.00;;;;;;2272859;61;1138;-86
2022/05/02 01:00:01;13278.00;0.04;23.63;0.00;0.00;0.62;;;;;15.10;1.00;;;;;;2272781;61;1371;-86
2022/05/02 01:02:28;63006.00;0.21;109.67;0.00;0.00;0.62;;;;;15.10;1.00;;;;;;2272816;61;1059;-86
2022/05/02 01:04:55;80660.00;0.27;140.18;0.00;0.00;0.62;;;;;14.90;1.00;;;;;;2272811;61;1063;-85
2022/05/02 01:07:21;169895.00;0.57;294.09;0.00;0.00;0.62;;;;;14.80;1.00;;;;;;2272812;61;1103;-84
2022/05/02 01:09:50;346223.00;1.15;597.37;0.00;0.00;0.62;;;;;14.90;1.00;;;;;;2272801;61;1394;-84
2022/05/02 01:12:20;292309.00;0.97;504.70;0.00;0.00;0.62;;;;;15.00;1.00;;;;;;2272677;61;1992;-85
2022/05/02 01:14:51;78699.00;0.26;136.79;0.00;0.00;0.62;;;;;15.00;1.00;;;;;;2272925;61;1232;-86
2022/05/02 01:17:18;11011.00;0.04;19.70;0.00;0.00;0.62;;;;;14.90;1.00;;;;;;2272748;61;1178;-86
2022/05/02 01:19:46;0.00;0.00;0.62;0.00;0.00;0.62;;;;;14.80;1.00;;;;;;2272808;61;1367;-86
2022/05/02 01:22:15;0.00;0.00;0.62;0.00;0.00;0.62;;;;;14.70;1.00;;;;;;2272839;61;1081;-85
2022/05/02 01:24:44;17475.00;0.06;30.90;0.00;0.00;0.62;;;;;14.30;1.00;;;;;;2272704;61;1122;-86
2022/05/02 01:27:12;13954.00;0.05;24.80;0.00;0.00;0.62;;;;;13.90;1.00;;;;;;2272701;61;1075;-85
2022/05/02 01:29:42;2143.00;0.01;4.33;0.00;0.00;0.62;;;;;13.70;1.00;;;;;;2272534;61;1070;-85
2022/05/02 01:32:11;24024.00;0.08;42.24;0.00;0.00;0.62;;;;;13.60;1.00;;;;;;2272705;61;1147;-86
2022/05/02 01:34:40;140837.00;0.47;244.01;5172.00;0.02;9.58;;;;;13.40;1.00;;;;;;2272709;61;2001;-84
2022/05/02 01:37:08;62809.00;0.21;109.33;0.00;0.00;0.62;;;;;13.90;1.00;;;;;;2272849;61;1061;-85
2022/05/02 01:39:36;110714.00;0.37;192.06;0.00;0.00;0.62;;;;;14.00;1.00;;;;;;2272623;61;901;-84
2022/05/02 01:42:06;94233.00;0.31;163.62;0.00;0.00;0.62;;;;;14.20;1.00;;;;;;2272463;61;1323;-84
2022/05/02 01:44:34;43239.00;0.14;75.49;0.00;0.00;0.62;;;;;14.10;1.00;;;;;;2272759;61;1047;-84
2022/05/02 01:47:01;47973.00;0.16;83.68;0.00;0.00;0.62;;;;;14.00;1.00;;;;;;2272790;61;1109;-84
2022/05/02 01:49:28;210863.00;0.70;364.62;0.00;0.00;0.62;;;;;13.90;1.00;;;;;;2272828;61;1064;-84
2022/05/02 01:51:57;88271.00;0.29;153.32;0.00;0.00;0.62;;;;;13.70;1.00;;;;;;2272589;61;1265;-84
2022/05/02 01:54:24;29270.00;0.10;51.32;0.00;0.00;0.62;;;;;13.50;1.00;;;;;;2272511;61;1959;-84
2022/05/02 01:56:55;52805.00;0.18;92.04;0.00;0.00;0.62;;;;;13.50;1.00;;;;;;2272476;61;1084;-85
2022/05/02 01:59:22;0.00;0.00;0.62;0.00;0.00;0.62;;;;;13.40;1.00;;;;;;2272555;61;1155;-84
2022/05/02 02:01:49;47444.00;0.16;82.77;0.00;0.00;0.62;;;;;13.40;1.00;;;;;;2272471;61;1405;-84
2022/05/02 02:07:00;79374.00;0.26;137.96;11597.00;0.04;20.72;;;;;13.40;1.00;;;;;;2272758;61;673;-84
2022/05/02 02:09:26;0.00;0.00;0.62;0.00;0.00;0.62;;;;;13.90;1.00;;;;;;2272755;61;1035;-85
2022/05/02 02:11:55;69553.00;0.23;120.99;0.00;0.00;0.62;;;;;14.50;1.00;;;;;;2272495;61;2174;-84
2022/05/02 02:14:22;5100.00;0.02;9.46;0.00;0.00;0.62;;;;;15.00;1.00;;;;;;2272543;61;2175;-84
2022/05/02 02:16:49;279154.00;0.93;482.08;95930.00;0.32;166.55;;;;;15.20;1.00;;;;;;2272658;61;1097;-84
2022/05/02 02:19:16;112417.00;0.37;195.00;20267.00;0.07;35.73;;;;;15.10;1.00;;;;;;2272632;61;1725;-84
2022/05/02 02:21:42;17884.00;0.06;31.61;0.00;0.00;0.62;;;;;14.40;1.00;;;;;;2272552;61;2203;-84
2022/05/02 02:24:09;20924.00;0.07;36.87;0.00;0.00;0.62;;;;;14.00;1.00;;;;;;2272532;61;1221;-84
2022/05/02 02:26:36;98176.00;0.33;170.42;0.00;0.00;0.62;;;;;13.80;1.00;;;;;;2272358;61;1080;-85
2022/05/02 02:29:05;0.00;0.00;0.62;0.00;0.00;0.62;;;;;14.50;1.00;;;;;;2272433;61;1700;-85
2022/05/02 02:31:32;46022.00;0.15;80.31;0.00;0.00;0.62;;;;;15.00;1.00;;;;;;2272508;61;1372;-84
2022/05/02 02:33:58;44905.00;0.15;78.37;0.00;0.00;0.62;;;;;15.30;1.00;;;;;;2272384;61;2002;-86
2022/05/02 02:36:25;0.00;0.00;0.62;0.00;0.00;0.62;;;;;15.50;1.00;;;;;;2272515;61;1074;-84
2022/05/02 02:38:52;92673.00;0.31;160.92;0.00;0.00;0.62;;;;;15.60;1.00;;;;;;2272609;61;1483;-85
2022/05/02 02:41:19;110202.00;0.37;191.18;0.00;0.00;0.62;;;;;15.80;1.00;;;;;;2272468;61;1284;-83
2022/05/02 02:43:46;0.00;0.00;0.62;0.00;0.00;0.62;;;;;15.80;1.00;;;;;;2272401;61;1070;-82
2022/05/02 02:46:14;49493.00;0.16;86.31;0.00;0.00;0.62;;;;;15.00;1.00;;;;;;2272385;61;1097;-84
2022/05/02 02:48:41;10428.00;0.03;18.69;0.00;0.00;0.62;;;;;14.60;1.00;;;;;;2272505;61;1175;-84
2022/05/02 02:51:08;134741.00;0.45;233.50;8421.00;0.03;15.21;;;;;14.80;1.00;;;;;;2272466;61;1380;-84
2022/05/02 02:53:35;8523.00;0.03;15.39;0.00;0.00;0.62;;;;;14.80;1.00;;;;;;2272505;61;1923;-83
2022/05/02 02:56:02;34300.00;0.11;60.03;0.00;0.00;0.62;;;;;15.10;1.00;;;;;;2272560;61;1151;-85
2022/05/02 02:58:29;0.00;0.00;0.62;0.00;0.00;0.62;;;;;15.10;1.00;;;;;;2272489;61;1147;-85
2022/05/02 03:00:56;0.00;0.00;0.62;0.00;0.00;0.62;;;;;14.80;1.00;;;;;;2272357;61;1315;-85
2022/05/02 03:03:24;24841.00;0.08;43.65;0.00;0.00;0.62;;;;;14.80;1.00;;;;;;2272111;61;1141;-84
2022/05/02 03:08:40;0.00;0.00;0.62;0.00;0.00;0.62;;;;;14.70;1.00;;;;;;2271439;61;1125;-84
2022/05/02 03:11:07;0.00;0.00;0.62;0.00;0.00;0.62;;;;;14.40;1.00;;;;;;2272314;61;1381;-83
2022/05/02 03:13:34;24399.00;0.08;42.89;0.00;0.00;0.62;;;;;14.10;1.00;;;;;;2272044;61;2017;-84
2022/05/02 03:16:02;200896.00;0.67;347.47;19513.00;0.07;34.43;;;;;14.30;1.00;;;;;;2272285;61;1479;-84
2022/05/02 03:18:31;8500.00;0.03;15.35;0.00;0.00;0.62;;;;;13.70;1.00;;;;;;2272284;61;1128;-84
2022/05/02 03:20:58;0.00;0.00;0.62;0.00;0.00;0.62;;;;;13.10;1.00;;;;;;2272314;61;1279;-84
2022/05/02 03:23:25;41751.00;0.14;72.92;0.00;0.00;0.62;;;;;12.90;1.00;;;;;;2272269;61;1174;-85
2022/05/02 03:25:52;14642.00;0.05;25.99;0.00;0.00;0.62;;;;;12.60;1.00;;;;;;2272305;61;1087;-84
2022/05/02 03:28:19;110662.00;0.37;191.97;36143.00;0.12;63.21;;;;;12.30;1.00;;;;;;2272094;61;1125;-82
2022/05/02 03:30:46;44730.00;0.15;78.07;0.00;0.00;0.62;;;;;11.50;1.00;;;;;;2272141;61;1379;-84
2022/05/02 03:33:13;92760.00;0.31;161.07;0.00;0.00;0.62;;;;;11.60;1.00;;;;;;2271867;61;1937;-84
2022/05/02 03:35:41;88379.00;0.29;153.51;0.00;0.00;0.62;;;;;12.00;1.00;;;;;;2272428;61;1215;-85
2022/05/02 03:38:08;0.00;0.00;0.62;0.00;0.00;0.62;;;;;12.40;1.00;;;;;;2272509;61;938;-82
2022/05/02 03:40:35;0.00;0.00;0.62;0.00;0.00;0.62;;;;;11.90;1.00;;;;;;2272289;61;1572;-84
2022/05/02 03:43:02;32968.00;0.11;57.72;0.00;0.00;0.62;;;;;11.50;1.00;;;;;;2272031;61;1110;-84
2022/05/02 03:45:29;91968.00;0.31;159.71;0.00;0.00;0.62;;;;;11.70;1.00;;;;;;2272166;61;1128;-83
2022/05/02 03:47:56;199183.00;0.66;344.52;0.00;0.00;0.62;;;;;11.60;1.00;;;;;;2272308;61;2026;-84
2022/05/02 03:50:23;19599.00;0.07;34.58;0.00;0.00;0.62;;;;;11.50;1.00;;;;;;2272255;61;1371;-85
2022/05/02 03:52:51;48886.00;0.16;85.26;0.00;0.00;0.62;;;;;11.40;1.00;;;;;;2272229;61;1058;-84
2022/05/02 03:55:18;145703.00;0.49;252.40;42128.00;0.14;73.57;;;;;11.40;1.00;;;;;;2272159;61;2014;-83
2022/05/02 03:57:45;7614.00;0.03;13.82;0.00;0.00;0.62;;;;;11.70;1.00;;;;;;2272209;61;1042;-83
2022/05/02 04:00:13;194948.00;0.65;337.23;0.00;0.00;0.62;;;;;11.50;1.00;;;;;;2272076;61;1364;-83
2022/05/02 04:02:40;4369.00;0.01;8.19;0.00;0.00;0.62;;;;;10.80;1.00;;;;;;2272262;61;1125;-84
2022/05/02 04:05:08;61807.00;0.21;107.60;0.00;0.00;0.62;;;;;11.20;1.00;;;;;;2272261;61;1155;-84
2022/05/02 04:07:35;9424.00;0.03;16.95;0.00;0.00;0.62;;;;;11.20;1.00;;;;;;2272057;61;1122;-83
2022/05/02 04:10:04;106875.00;0.36;185.44;0.00;0.00;0.62;;;;;11.00;1.00;;;;;;2272174;61;1391;-83
2022/05/02 04:12:36;15627.00;0.05;27.70;0.00;0.00;0.62;;;;;10.90;1.00;;;;;;2271944;61;1086;-83
2022/05/02 04:15:03;116704.00;0.39;202.40;0.00;0.00;0.62;;;;;11.30;1.00;;;;;;2272221;61;1998;-85
2022/05/02 04:17:30;176151.00;0.59;304.86;0.00;0.00;0.62;;;;;11.60;1.00;;;;;;2272308;61;1134;-83
2022/05/02 04:19:56;175404.00;0.58;303.57;0.00;0.00;0.62;;;;;11.60;1.00;;;;;;2272175;61;1413;-83
2022/05/02 04:22:23;28009.00;0.09;49.14;0.00;0.00;0.62;;;;;11.70;1.00;;;;;;2272076;61;1160;-84
2022/05/02 04:24:50;102348.00;0.34;177.62;2217.00;0.01;4.46;;;;;11.90;1.00;;;;;;2272201;61;1557;-85
2022/05/02 04:27:18;42037.00;0.14;73.41;0.00;0.00;0.62;;;;;11.70;1.00;;;;;;2272110;61;1060;-85
2022/05/02 04:29:45;96614.00;0.32;167.73;0.00;0.00;0.62;;;;;11.40;1.00;;;;;;2272188;61;1323;-84
2022/05/02 04:32:12;16704.00;0.06;29.56;0.00;0.00;0.62;;;;;11.40;1.00;;;;;;2271472;61;1062;-84
2022/05/02 04:34:39;131230.00;0.44;227.45;0.00;0.00;0.62;;;;;11.60;1.00;;;;;;2271253;61;1919;-84
2022/05/02 04:37:07;56885.00;0.19;99.09;0.00;0.00;0.62;;;;;12.00;1.00;;;;;;2271875;61;1133;-83
2022/05/02 04:39:34;24309.00;0.08;42.73;0.00;0.00;0.62;;;;;12.50;1.00;;;;;;2271982;61;1056;-84
2022/05/02 04:42:01;87517.00;0.29;152.02;0.00;0.00;0.62;;;;;12.70;1.00;;;;;;2272188;61;1300;-85
2022/05/02 04:44:29;48654.00;0.16;84.86;0.00;0.00;0.62;;;;;12.90;1.00;;;;;;2272220;61;1184;-86
2022/05/02 04:46:56;63218.00;0.21;110.04;0.00;0.00;0.62;;;;;12.90;1.00;;;;;;2272150;61;1129;-85
2022/05/02 04:49:23;63521.00;0.21;110.56;0.00;0.00;0.62;;;;;12.30;1.00;;;;;;2272184;61;1004;-84
2022/05/02 04:51:50;41251.00;0.14;72.05;0.00;0.00;0.62;;;;;12.00;1.00;;;;;;2271905;61;1368;-85
2022/05/02 04:54:17;3786.00;0.01;7.18;0.00;0.00;0.62;;;;;12.20;1.00;;;;;;2271835;61;1923;-84
2022/05/02 04:56:43;26322.00;0.09;46.22;0.00;0.00;0.62;;;;;12.40;1.00;;;;;;2271906;61;1007;-85
2022/05/02 04:59:10;0.00;0.00;0.62;0.00;0.00;0.62;;;;;12.40;1.00;;;;;;2271771;61;1081;-84
2022/05/02 05:01:39;17962.00;0.06;31.74;0.00;0.00;0.62;;;;;12.90;1.00;;;;;;2271840;61;1353;-85
2022/05/02 05:04:06;41176.00;0.14;71.92;0.00;0.00;0.62;;;;;13.00;1.00;;;;;;2271615;61;1147;-85
2022/05/02 05:06:32;51664.00;0.17;90.06;0.00;0.00;0.62;;;;;13.50;1.00;;;;;;2271630;61;1116;-86
2022/05/02 05:08:59;0.00;0.00;0.62;0.00;0.00;0.62;;;;;13.80;1.00;;;;;;2271922;61;1054;-86
2022/05/02 05:11:37;0.00;0.00;0.62;0.00;0.00;0.62;;;;;13.70;1.00;;;;;;2271681;61;1244;-86
2022/05/02 05:17:17;98080.00;0.33;170.26;0.00;0.00;0.62;;;;;13.90;1.00;;;;;;2271571;61;717;-85
2022/05/02 05:20:03;0.00;0.00;0.62;0.00;0.00;0.62;;;;;14.30;1.00;;;;;;2271444;61;1330;-86
2022/05/02 05:22:53;0.00;0.00;0.62;0.00;0.00;0.62;;;;;14.50;1.00;;;;;;2271690;61;998;-86
2022/05/02 05:25:38;108409.00;0.36;188.08;0.00;0.00;0.62;;;;;14.30;1.00;;;;;;2271169;61;1216;-83
2022/05/02 05:28:24;0.00;0.00;0.62;0.00;0.00;0.62;;;;;14.10;1.00;;;;;;2271844;61;1163;-83
2022/05/02 05:31:04;0.00;0.00;0.62;0.00;0.00;0.62;;;;;14.20;1.00;;;;;;2271622;61;1533;-84
2022/05/02 05:33:47;41853.00;0.14;73.09;0.00;0.00;0.62;;;;;15.20;1.00;;;;;;2271963;61;1971;-83
2022/05/02 05:36:25;22922.00;0.08;40.33;0.00;0.00;0.62;;;;;16.70;1.00;;;;;;2272080;61;1109;-84
2022/05/02 05:39:01;64808.00;0.22;112.79;0.00;0.00;0.62;;;;;17.60;1.00;;;;;;2272386;61;1023;-84
2022/05/02 05:41:41;18129.00;0.06;32.03;0.00;0.00;0.62;;;;;18.40;1.00;;;;;;2271714;61;1477;-83
2022/05/02 05:44:24;45019.00;0.15;78.57;0.00;0.00;0.62;;;;;19.60;1.00;;;;;;2272325;61;988;-85
2022/05/02 05:47:10;0.00;0.00;0.62;0.00;0.00;0.62;;;;;19.90;1.00;;;;;;2271799;61;1126;-84
2022/05/02 05:49:52;0.00;0.00;0.62;0.00;0.00;0.62;;;;;20.10;1.00;;;;;;2272142;61;1151;-84
2022/05/02 05:52:36;95188.00;0.32;165.27;0.00;0.00;0.62;;;;;20.10;1.00;;;;;;2271977;61;1193;-85
2022/05/02 05:55:06;0.00;0.00;0.62;0.00;0.00;0.62;;;;;20.90;1.00;;;;;;2271789;61;1947;-86
2022/05/02 05:57:42;222022.00;0.74;383.82;0.00;0.00;0.62;;;;;21.40;1.00;;;;;;2271841;61;1184;-85
2022/05/02 06:00:11;47014.00;0.16;82.02;0.00;0.00;0.62;;;;;22.00;1.00;;;;;;2272315;61;1506;-86
2022/05/02 06:03:01;0.00;0.00;0.62;0.00;0.00;0.62;;;;;22.20;1.00;;;;;;2272285;61;1118;-86
2022/05/02 06:05:30;0.00;0.00;0.62;0.00;0.00;0.62;;;;;22.80;1.00;;;;;;2271963;61;1103;-84
2022/05/02 06:07:57;12418.00;0.04;22.14;0.00;0.00;0.62;;;;;23.10;1.00;;;;;;2271145;61;1143;-84
2022/05/02 06:10:25;0.00;0.00;0.62;0.00;0.00;0.62;;;;;23.30;1.00;;;;;;2271516;61;1269;-84
2022/05/02 06:12:55;50723.00;0.17;88.44;0.00;0.00;0.62;;;;;23.20;1.00;;;;;;2271441;61;1057;-85
2022/05/02 06:18:30;31748.00;0.11;55.61;0.00;0.00;0.62;;;;;24.10;1.00;;;;;;2271781;61;772;-85
2022/05/02 06:21:01;556456.00;1.85;959.09;140802.00;0.47;243.95;;;;;24.10;1.00;;;;;;2271767;61;1356;-85
2022/05/02 06:23:32;14198.00;0.05;25.22;0.00;0.00;0.62;;;;;23.90;1.00;;;;;;2271429;61;1121;-85
2022/05/02 06:25:59;138212.00;0.46;239.49;28281.00;0.09;49.61;;;;;23.80;1.00;;;;;;2272083;61;2271;-86
2022/05/02 06:28:31;46859.00;0.16;81.75;0.00;0.00;0.62;;;;;23.90;1.00;;;;;;2271847;61;1006;-85
2022/05/02 06:31:01;0.00;0.00;0.62;0.00;0.00;0.62;;;;;24.50;1.00;;;;;;2271743;61;1373;-85
2022/05/02 06:33:28;0.00;0.00;0.62;0.00;0.00;0.62;;;;;24.80;1.00;;;;;;2271605;61;1147;-84
2022/05/02 06:36:24;31379.00;0.10;54.97;0.00;0.00;0.62;;;;;23.90;1.00;;;;;;2271645;61;1994;-85
2022/05/02 06:39:01;204174.00;0.68;353.11;80389.00;0.27;139.71;;;;;23.30;1.00;;;;;;2271397;61;1713;-84
2022/05/02 06:41:48;222655.00;0.74;384.91;74471.00;0.25;129.49;;;;;23.70;1.00;;;;;;2271640;61;1379;-84
2022/05/02 06:44:32;174040.00;0.58;301.23;86516.00;0.29;150.29;;;;;23.70;1.00;;;;;;2271111;61;1694;-84
2022/05/02 06:47:11;527440.00;1.76;909.08;157177.00;0.52;272.18;;;;;24.30;1.00;;;;;;2271436;61;2150;-84
2022/05/02 06:49:44;371216.00;1.24;640.33;80144.00;0.27;139.29;;;;;25.20;1.00;;;;;;2271717;61;1142;-84
2022/05/02 06:52:13;214853.00;0.72;371.49;85487.00;0.28;148.51;;;;;25.40;1.00;;;;;;2271845;61;1207;-85
2022/05/02 06:55:10;169079.00;0.56;292.68;77211.00;0.26;134.22;;;;;25.60;1.00;;;;;;2271624;61;1923;-84
2022/05/02 06:57:47;243937.00;0.81;421.52;80100.00;0.27;139.21;;;;;24.80;1.00;;;;;;2271845;61;1125;-84
2022/05/02 07:00:20;240848.00;0.80;416.21;73050.00;0.24;127.03;;;;;25.30;1.00;;;;;;2271744;61;1418;-84
2022/05/02 07:03:28;203682.00;0.68;352.26;84443.00;0.28;146.71;;;;;25.20;1.00;;;;;;2271478;61;1145;-85
2022/05/02 07:06:07;455539.00;1.52;785.31;58927.00;0.20;102.62;;;;;24.70;1.00;;;;;;2264880;61;1368;-85
2022/05/02 07:08:48;771079.00;2.57;1330.73;174554.00;0.58;302.11;;;;;24.40;1.00;;;;;;2271699;61;1095;-84
2022/05/02 07:11:21;877350.00;2.92;1516.37;152668.00;0.51;264.41;;;;;24.90;1.00;;;;;;2271527;61;1307;-86
2022/05/02 07:14:02;282321.00;0.94;487.53;71943.00;0.24;125.12;;;;;26.00;1.00;;;;;;2271969;61;1210;-84
2022/05/02 07:16:32;237178.00;0.79;409.90;80188.00;0.27;139.36;;;;;26.10;1.00;;;;;;2271961;61;1183;-85
2022/05/02 07:19:17;259202.00;0.86;447.78;77173.00;0.26;134.15;;;;;26.10;1.00;;;;;;2271541;61;1104;-84
2022/05/02 07:21:55;222902.00;0.74;385.34;75290.00;0.25;130.90;;;;;26.00;1.00;;;;;;2271610;61;1529;-85
2022/05/02 07:24:46;233358.00;0.78;403.33;78022.00;0.26;135.62;;;;;26.30;1.00;;;;;;2271742;61;1105;-84
2022/05/02 07:27:28;1393217.00;4.64;2443.75;128387.00;0.43;222.55;;;;;26.80;1.00;;;;;;2272461;61;1093;-84
2022/05/02 07:29:58;596300.00;1.99;1027.83;92066.00;0.31;159.87;;;;;26.20;1.00;;;;;;2272046;61;1461;-84
2022/05/02 07:32:26;785855.00;2.62;1356.47;105262.00;0.35;182.65;;;;;26.20;1.00;;;;;;2272124;61;1120;-85
2022/05/02 07:34:55;712964.00;2.38;1229.73;142478.00;0.47;246.84;;;;;26.00;1.00;;;;;;2271954;61;1981;-84
2022/05/02 07:37:23;1360646.00;4.54;2383.53;226970.00;0.76;392.34;;;;;26.10;1.00;;;;;;2271970;61;1179;-85
2022/05/02 07:39:52;964585.00;3.22;1669.85;201676.00;0.67;348.81;;;;;26.10;1.00;;;;;;2271805;61;1404;-84
2022/05/02 07:42:20;954599.00;3.18;1652.22;240012.00;0.80;414.77;;;;;26.70;1.00;;;;;;2272108;61;1182;-86
2022/05/02 07:44:51;322552.00;1.08;556.68;67326.00;0.22;117.14;;;;;27.40;1.00;;;;;;2271987;61;1182;-85
2022/05/02 07:47:20;254020.00;0.85;438.86;78146.00;0.26;135.83;;;;;27.20;1.00;;;;;;2271995;61;1221;-86
2022/05/02 07:49:49;719464.00;2.40;1241.01;226842.00;0.76;392.12;;;;;27.60;1.00;;;;;;2272191;61;1255;-86
2022/05/02 07:52:21;209574.00;0.70;362.40;74621.00;0.25;129.74;;;;;28.10;1.00;;;;;;2272253;61;1215;-86
2022/05/02 07:54:51;386263.00;1.29;666.19;98823.00;0.33;171.54;;;;;28.20;1.00;;;;;;2272266;61;1989;-85
2022/05/02 07:57:20;293882.00;0.98;507.40;82477.00;0.27;143.32;;;;;27.50;1.00;;;;;;2272425;61;1062;-87
2022/05/02 07:59:52;314065.00;1.05;542.10;76914.00;0.26;133.71;;;;;27.10;1.00;;;;;;2272117;61;1622;-86
2022/05/02 08:02:20;260172.00;0.87;449.44;46712.00;0.16;81.50;;;;;27.00;1.00;;;;;;2272165;61;1099;-85
2022/05/02 08:04:49;192887.00;0.64;333.68;83486.00;0.28;145.06;;;;;26.80;1.00;;;;;;2272079;61;1075;-85
2022/05/02 08:07:24;551088.00;1.84;949.83;82723.00;0.28;143.74;;;;;26.90;1.00;;;;;;2271962;61;1171;-85
2022/05/02 08:10:30;728460.00;2.43;1256.63;110928.00;0.37;192.43;;;;;27.30;1.00;;;;;;2271956;61;1375;-86
2022/05/02 08:13:03;659521.00;2.20;1137.11;106522.00;0.36;184.83;;;;;27.50;1.00;;;;;;2271851;61;1701;-84
2022/05/02 08:15:33;737338.00;2.46;1272.05;86978.00;0.29;151.09;;;;;27.30;1.00;;;;;;2272221;61;1924;-86
2022/05/02 08:18:32;840700.00;2.80;1452.20;31440.00;0.10;55.08;;;;;27.70;1.00;;;;;;2272138;61;937;-85
2022/05/02 08:21:04;410320.00;1.37;707.55;39694.00;0.13;69.36;;;;;27.90;1.00;;;;;;2271960;61;1356;-85
2022/05/02 08:27:19;258208.00;0.86;446.07;14555.00;0.05;25.84;;;;;27.30;1.00;;;;;;2272335;61;733;-86
2022/05/02 08:30:08;537242.00;1.79;925.97;54751.00;0.18;95.40;;;;;26.40;1.00;;;;;;2272319;61;1368;-87
2022/05/02 08:32:43;0.00;0.00;0.62;0.00;0.00;0.62;;;;;25.90;1.00;;;;;;2271567;61;1128;-85
2022/05/02 08:35:18;276351.00;0.92;477.26;0.00;0.00;0.62;;;;;25.90;1.00;;;;;;2272171;61;2012;-85
2022/05/02 08:38:15;33241.00;0.11;58.19;0.00;0.00;0.62;;;;;25.60;1.00;;;;;;2272350;61;1068;-83
2022/05/02 08:41:16;0.00;0.00;0.62;0.00;0.00;0.62;;;;;26.10;1.00;;;;;;2270559;61;1534;-84
2022/05/02 08:44:20;120324.00;0.40;208.64;53559.00;0.18;93.34;;;;;26.00;1.00;;;;;;2272110;61;1139;-84
2022/05/02 08:47:24;47567.00;0.16;82.98;0.00;0.00;0.62;;;;;26.20;1.00;;;;;;2272160;61;1283;-85
2022/05/02 08:50:28;167980.00;0.56;290.79;0.00;0.00;0.62;;;;;26.10;1.00;;;;;;2272061;61;1390;-85
2022/05/02 08:53:43;20066.00;0.07;35.38;0.00;0.00;0.62;;;;;25.70;1.00;;;;;;2272251;61;904;-85
2022/05/02 08:56:51;89017.00;0.30;154.61;0.00;0.00;0.62;;;;;25.60;1.00;;;;;;2272103;61;1923;-85
2022/05/02 09:00:06;20537.00;0.07;36.20;0.00;0.00;0.62;;;;;24.00;1.00;;;;;;2259632;61;1359;-86
2022/05/02 09:03:09;0.00;0.00;0.62;0.00;0.00;0.62;;;;;24.10;1.00;;;;;;2259762;61;1080;-86
2022/05/02 09:06:06;51342.00;0.17;89.51;0.00;0.00;0.62;;;;;24.10;1.00;;;;;;2259696;61;1086;-87
2022/05/02 09:09:12;0.00;0.00;0.62;0.00;0.00;0.62;;;;;24.60;1.00;;;;;;2259719;61;1113;-85
2022/05/02 09:12:16;8529.00;0.03;15.40;0.00;0.00;0.62;;;;;24.40;1.00;;;;;;2253464;61;1429;-85
2022/05/02 09:15:13;88647.00;0.30;153.97;0.00;0.00;0.62;;;;;23.50;1.00;;;;;;2260339;61;2005;-86
2022/05/02 09:18:12;73251.00;0.24;127.38;0.00;0.00;0.62;;;;;23.90;1.00;;;;;;2260312;61;1118;-86
2022/05/02 09:20:55;0.00;0.00;0.62;0.00;0.00;0.62;;;;;23.80;1.00;;;;;;2259648;61;1388;-85
2022/05/02 09:24:01;0.00;0.00;0.62;0.00;0.00;0.62;;;;;23.70;1.00;;;;;;2260068;61;1570;-85
2022/05/02 09:26:57;92041.00;0.31;159.83;0.00;0.00;0.62;;;;;23.30;1.00;;;;;;2260205;61;1208;-84
2022/05/02 09:30:03;100725.00;0.34;174.82;0.00;0.00;0.62;;;;;22.60;1.00;;;;;;2260024;61;1502;-85
2022/05/02 09:32:46;124039.00;0.41;215.05;0.00;0.00;0.62;;;;;22.50;1.00;;;;;;2249887;61;1117;-84
2022/05/02 09:35:18;137697.00;0.46;238.60;0.00;0.00;0.62;;;;;22.60;1.00;;;;;;2272728;61;1977;-85
2022/05/02 09:37:57;393430.00;1.31;678.51;0.00;0.00;0.62;;;;;22.60;1.00;;;;;;2272805;61;1525;-86
2022/05/02 09:40:41;209495.00;0.70;362.27;0.00;0.00;0.62;;;;;23.20;1.00;;;;;;2272724;61;1468;-85
2022/05/02 09:49:43;33530.00;0.11;58.69;0.00;0.00;0.62;;;;;21.00;1.00;;;;;;2272856;61;657;-85
2022/05/02 09:52:14;261964.00;0.87;452.53;31937.00;0.11;55.94;;;;;21.10;1.00;;;;;;2272464;61;1289;-86
2022/05/02 09:58:13;57376.00;0.19;99.94;0.00;0.00;0.62;;;;;22.80;1.00;;;;;;2272684;61;745;-85
2022/05/02 10:01:11;158720.00;0.53;274.83;0.00;0.00;0.62;;;;;22.00;1.00;;;;;;2272378;61;1312;-85
2022/05/02 10:03:40;23891.00;0.08;42.01;0.00;0.00;0.62;;;;;22.40;1.00;;;;;;2272544;61;2203;-86
2022/05/02 10:06:10;41908.00;0.14;73.19;0.00;0.00;0.62;;;;;21.90;1.00;;;;;;2272723;61;1106;-85
2022/05/02 10:08:50;230358.00;0.77;398.16;74543.00;0.25;129.61;;;;;21.50;1.00;;;;;;2272735;61;1175;-86
2022/05/02 10:11:46;290159.00;0.97;501.00;78221.00;0.26;135.96;;;;;21.20;1.00;;;;;;2272556;61;1998;-85
2022/05/02 10:14:51;164969.00;0.55;285.60;75944.00;0.25;132.03;;;;;22.20;1.00;;;;;;2272788;61;1560;-86
2022/05/02 10:17:36;130437.00;0.43;226.08;0.00;0.00;0.62;;;;;21.70;1.00;;;;;;2272410;61;1143;-86
2022/05/02 10:20:16;223359.00;0.74;386.12;0.00;0.00;0.62;;;;;21.50;1.00;;;;;;2272581;61;1577;-85
2022/05/02 10:23:03;122006.00;0.41;211.54;0.00;0.00;0.62;;;;;21.90;1.00;;;;;;2272496;61;1610;-84
2022/05/02 10:25:40;213633.00;0.71;369.39;0.00;0.00;0.62;;;;;21.20;1.00;;;;;;2272562;61;1076;-85
2022/05/02 10:28:52;286294.00;0.95;494.36;86437.00;0.29;150.15;;;;;21.80;1.00;;;;;;2272373;61;1166;-84
2022/05/02 10:31:21;843836.00;2.81;1457.68;126217.00;0.42;218.81;;;;;22.50;1.00;;;;;;2259846;61;1359;-85
2022/05/02 10:33:51;310476.00;1.03;535.93;0.00;0.00;0.62;;;;;21.90;1.00;;;;;;2271331;61;1069;-85
2022/05/02 10:36:22;582144.00;1.94;1003.40;0.00;0.00;0.62;;;;;21.30;1.00;;;;;;2272518;61;2004;-86
2022/05/02 10:38:54;975164.00;3.25;1688.53;99526.00;0.33;172.75;;;;;20.70;1.00;;;;;;2272575;61;1592;-84
2022/05/02 10:41:32;636966.00;2.12;1098.09;0.00;0.00;0.62;;;;;20.20;1.00;;;;;;2272593;61;1563;-84
2022/05/02 10:44:03;482921.00;1.61;832.42;25645.00;0.09;45.04;;;;;20.70;1.00;;;;;;2272659;61;1088;-87
2022/05/02 10:46:32;219092.00;0.73;378.78;0.00;0.00;0.62;;;;;21.20;1.00;;;;;;2272681;61;1167;-84
2022/05/02 10:49:04;316363.00;1.05;546.05;0.00;0.00;0.62;;;;;21.40;1.00;;;;;;2272558;61;1458;-85
2022/05/02 10:51:42;438074.00;1.46;755.27;0.00;0.00;0.62;;;;;21.70;1.00;;;;;;2272270;61;1431;-85
2022/05/02 10:54:28;524936.00;1.75;904.77;44999.00;0.15;78.54;;;;;21.90;1.00;;;;;;2272665;61;1157;-86